Time;durP1;ratioP1;P1;durP2;ratioP2;P2;SDS_P1;SDS_P2;PMS_P1;PMS_P2;Temp;Humidity;BMP_temperature;BMP_pressure;BME280_temperature;BME280_humidity;BME280_pressure;Samples;Min_cycle;Max_cycle;Signal;HPM_P1;HPM_P2
2023/10/01 00:00:26;;;;;;;9.55;5.60;;;;;;;15.30;67.58;99836.56;4451710;32;34929;-85
2023/10/01 00:02:56;;;;;;;8.30;5.07;;;;;;;15.17;67.96;99828.66;4447886;32;34625;-86
2023/10/01 00:05:25;;;;;;;10.02;6.05;;;;;;;15.19;67.81;99839.97;4430139;32;32571;-85
2023/10/01 00:07:53;;;;;;;8.93;5.45;;;;;;;15.36;66.92;99830.47;4445027;32;33048;-87
2023/10/01 00:10:22;;;;;;;8.10;4.80;;;;;;;14.97;68.10;99832.03;4436880;32;34293;-87
2023/10/01 00:12:52;;;;;;;8.88;5.47;;;;;;;14.89;68.05;99828.50;4437410;32;33535;-87
2023/10/01 00:15:24;;;;;;;8.13;4.90;;;;;;;14.78;68.35;99833.66;4451506;32;33853;-87
2023/10/01 00:17:52;;;;;;;9.50;5.35;;;;;;;14.87;67.80;99831.97;4437175;32;32847;-86
2023/10/01 00:20:24;;;;;;;7.30;4.90;;;;;;;14.81;67.85;99832.78;4451938;32;34632;-87
2023/10/01 00:22:56;;;;;;;14.07;5.30;;;;;;;14.75;67.68;99840.59;4424917;32;33746;-84
2023/10/01 00:25:24;;;;;;;8.50;4.53;;;;;;;14.84;67.30;99845.88;4437008;32;33570;-85
2023/10/01 00:27:52;;;;;;;7.53;4.60;;;;;;;14.76;67.27;99831.91;4437291;32;33966;-88
2023/10/01 00:30:21;;;;;;;9.50;5.12;;;;;;;15.08;65.84;99842.53;4448918;32;34480;-86
2023/10/01 00:32:49;;;;;;;8.88;5.80;;;;;;;14.94;66.41;99846.81;4426442;32;34342;-86
2023/10/01 00:35:20;;;;;;;7.78;5.03;;;;;;;15.07;66.00;99844.25;4459557;32;34275;-84
2023/10/01 00:37:48;;;;;;;7.68;4.82;;;;;;;15.10;66.08;99838.19;4446368;32;34397;-86
2023/10/01 00:40:17;;;;;;;8.02;5.12;;;;;;;15.00;65.85;99833.75;4435347;32;34471;-86
2023/10/01 00:42:45;;;;;;;9.75;5.00;;;;;;;15.24;64.83;99830.44;4451424;32;34466;-85
2023/10/01 00:45:14;;;;;;;7.25;5.10;;;;;;;15.16;65.31;99833.00;4455651;32;34161;-85
2023/10/01 00:47:44;;;;;;;8.82;5.15;;;;;;;15.42;63.66;99834.84;4450209;32;33599;-86
2023/10/01 00:50:15;;;;;;;7.75;4.62;;;;;;;15.71;62.32;99833.22;4447725;32;33699;-86
2023/10/01 00:52:44;;;;;;;6.97;4.82;;;;;;;15.19;63.89;99833.03;4437931;32;34037;-86
2023/10/01 00:55:13;;;;;;;9.75;4.85;;;;;;;14.82;65.13;99835.41;4439156;32;33486;-86
2023/10/01 00:57:42;;;;;;;8.27;5.00;;;;;;;14.60;65.65;99837.00;4448861;32;32593;-87
2023/10/01 01:00:15;;;;;;;8.80;5.00;;;;;;;14.97;64.27;99828.56;4449079;32;33676;-86
2023/10/01 01:02:57;;;;;;;8.02;4.78;;;;;;;15.32;62.73;99829.59;4461012;32;33881;-85
2023/10/01 01:05:35;;;;;;;10.85;5.53;;;;;;;14.76;64.61;99832.75;4440995;32;33037;-87
2023/10/01 01:08:09;;;;;;;8.18;4.70;;;;;;;14.24;66.06;99831.47;4452762;32;33697;-87
2023/10/01 01:10:41;;;;;;;8.68;5.35;;;;;;;14.55;65.28;99838.72;4439491;32;34160;-86
2023/10/01 01:13:16;;;;;;;9.35;5.40;;;;;;;14.42;65.54;99842.06;4448129;32;33425;-87
2023/10/01 01:15:46;;;;;;;8.15;4.87;;;;;;;14.32;65.88;99845.47;4466974;32;33419;-87
2023/10/01 01:18:14;;;;;;;8.13;4.72;;;;;;;13.95;66.87;99847.72;4452098;32;33670;-86
2023/10/01 01:20:45;;;;;;;10.57;5.05;;;;;;;14.51;65.10;99841.31;4445313;32;33892;-86
2023/10/01 01:23:21;;;;;;;9.15;5.60;;;;;;;14.12;65.91;99842.66;4467931;32;33873;-85
2023/10/01 01:25:56;;;;;;;8.05;5.20;;;;;;;14.13;65.93;99841.81;4451873;32;32896;-85
2023/10/01 01:28:27;;;;;;;9.15;5.15;;;;;;;14.34;65.19;99844.59;4452988;32;33245;-86
2023/10/01 01:30:56;;;;;;;9.02;4.75;;;;;;;14.56;64.14;99845.69;4453858;32;34102;-86
2023/10/01 01:33:31;;;;;;;9.13;5.35;;;;;;;14.52;64.34;99846.53;4439112;32;33676;-87
2023/10/01 01:36:03;;;;;;;9.15;5.30;;;;;;;14.69;63.61;99853.59;4462140;32;33181;-86
2023/10/01 01:38:32;;;;;;;8.73;5.70;;;;;;;14.52;63.93;99845.66;4443287;32;34887;-86
2023/10/01 01:41:01;;;;;;;9.95;4.95;;;;;;;14.15;64.90;99852.25;4434481;32;33642;-87
2023/10/01 01:43:31;;;;;;;8.68;4.82;;;;;;;14.03;65.37;99863.44;4444758;32;34241;-86
2023/10/01 01:46:03;;;;;;;7.93;5.35;;;;;;;14.08;65.12;99859.13;4440181;32;33213;-86
2023/10/01 01:48:33;;;;;;;8.52;4.85;;;;;;;13.86;65.69;99863.25;4413521;32;33683;-85
2023/10/01 01:51:03;;;;;;;8.45;5.18;;;;;;;14.00;64.98;99856.47;4425305;32;34435;-86
2023/10/01 01:53:35;;;;;;;7.47;4.60;;;;;;;13.81;65.67;99858.00;4433148;32;32312;-86
2023/10/01 01:56:12;;;;;;;7.22;5.05;;;;;;;13.98;64.94;99866.00;4453938;32;33378;-87
2023/10/01 01:58:41;;;;;;;8.27;4.75;;;;;;;13.93;64.92;99853.78;4464441;32;33671;-84
2023/10/01 02:01:17;;;;;;;9.57;5.10;;;;;;;14.27;63.60;99841.94;4466459;32;33939;-84
2023/10/01 02:03:46;;;;;;;7.65;4.40;;;;;;;14.34;63.08;99839.38;4426931;32;33820;-86
2023/10/01 02:06:15;;;;;;;9.02;4.50;;;;;;;14.73;61.58;99848.41;4457577;32;33534;-87
2023/10/01 02:08:59;;;;;;;6.93;4.72;;;;;;;14.26;63.13;99835.84;4452605;32;33202;-86
2023/10/01 02:11:32;;;;;;;9.65;4.68;;;;;;;14.14;63.86;99840.94;4459721;32;33688;-87
2023/10/01 02:14:02;;;;;;;9.75;4.60;;;;;;;14.01;63.64;99847.78;4464129;32;33694;-86
2023/10/01 02:16:38;;;;;;;6.47;4.37;;;;;;;13.92;63.69;99849.44;4467471;32;34613;-86
2023/10/01 02:19:21;;;;;;;7.28;4.35;;;;;;;13.98;63.75;99850.38;4437473;32;33476;-87
2023/10/01 02:22:05;;;;;;;8.95;4.90;;;;;;;14.22;62.59;99844.50;4449110;32;34118;-85
2023/10/01 02:24:45;;;;;;;7.10;4.20;;;;;;;14.18;63.08;99847.94;4461628;32;33464;-87
2023/10/01 02:27:15;;;;;;;9.32;4.35;;;;;;;13.95;63.27;99852.06;4439230;32;33142;-87
2023/10/01 02:30:09;;;;;;;9.52;4.70;;;;;;;13.62;64.83;99853.44;4439104;32;32553;-87
2023/10/01 02:32:35;;;;;;;7.93;4.60;;;;;;;13.84;63.88;99845.00;4437699;32;34087;-87
2023/10/01 02:35:34;;;;;;;10.60;4.25;;;;;;;13.90;63.79;99851.13;4456949;32;33769;-87
2023/10/01 02:37:54;;;;;;;10.02;4.80;;;;;;;14.06;63.29;99847.84;4465049;32;32962;-86
2023/10/01 02:40:22;;;;;;;11.23;4.60;;;;;;;13.94;63.47;99840.78;4451805;32;33455;-87
2023/10/01 02:42:49;;;;;;;9.23;4.78;;;;;;;13.98;63.19;99849.47;4453032;32;34000;-86
2023/10/01 02:45:41;;;;;;;8.23;4.72;;;;;;;13.38;64.89;99856.66;4461888;32;33819;-86
2023/10/01 02:48:18;;;;;;;7.32;4.35;;;;;;;13.74;63.34;99850.97;4447050;32;33146;-87
2023/10/01 02:50:54;;;;;;;8.40;4.62;;;;;;;13.51;64.21;99861.13;4460694;32;33763;-87
2023/10/01 02:53:22;;;;;;;11.23;4.72;;;;;;;13.43;64.36;99869.72;4453142;32;34582;-86
2023/10/01 02:55:51;;;;;;;8.63;4.43;;;;;;;13.37;64.34;99860.97;4451454;32;34305;-87
2023/10/01 02:58:26;;;;;;;7.53;4.28;;;;;;;13.61;63.68;99870.81;4443588;32;33246;-86
2023/10/01 03:00:55;;;;;;;8.75;4.15;;;;;;;13.29;64.36;99861.72;4439224;32;34554;-85
2023/10/01 03:03:31;;;;;;;9.63;4.43;;;;;;;13.76;63.25;99861.44;4454390;32;34407;-85
2023/10/01 03:06:08;;;;;;;8.10;4.57;;;;;;;14.14;61.16;99850.50;4455869;32;32936;-86
2023/10/01 03:08:41;;;;;;;9.07;3.78;;;;;;;14.27;60.67;99848.00;4445816;32;33265;-85
2023/10/01 03:11:11;;;;;;;9.82;3.95;;;;;;;13.78;62.28;99859.69;4450342;32;34730;-87
2023/10/01 03:13:40;;;;;;;9.90;4.20;;;;;;;14.03;61.39;99848.66;4448292;32;32495;-86
2023/10/01 03:18:55;;;;;;;9.45;4.35;;;;;;;13.97;61.77;99856.41;4460812;32;33097;-87
2023/10/01 03:24:10;;;;;;;8.93;4.70;;;;;;;13.67;62.54;99848.28;4446549;32;34889;-86
2023/10/01 03:26:44;;;;;;;8.07;4.10;;;;;;;13.72;62.20;99852.69;4450304;32;33578;-86
2023/10/01 03:29:17;;;;;;;9.45;4.07;;;;;;;13.58;62.27;99855.13;4443105;32;33013;-87
2023/10/01 03:31:46;;;;;;;8.05;4.00;;;;;;;13.77;61.43;99850.13;4451471;32;34658;-85
2023/10/01 03:34:28;;;;;;;7.22;3.62;;;;;;;13.68;62.29;99857.88;4456608;32;34055;-86
2023/10/01 03:37:00;;;;;;;14.07;4.32;;;;;;;14.02;61.33;99854.75;4453768;32;33857;-87
2023/10/01 03:39:28;;;;;;;9.63;3.92;;;;;;;13.92;61.25;99854.63;4437016;32;31757;-86
2023/10/01 03:42:17;;;;;;;8.55;3.60;;;;;;;13.99;61.14;99851.25;4457602;32;33586;-86
2023/10/01 03:47:34;;;;;;;7.73;4.00;;;;;;;13.75;61.44;99851.84;4463205;32;33850;-85
2023/10/01 03:50:03;;;;;;;10.55;4.10;;;;;;;13.68;62.18;99847.44;4444445;32;34343;-86
2023/10/01 03:52:39;;;;;;;11.12;4.03;;;;;;;13.65;62.19;99850.00;4466678;32;34718;-86
2023/10/01 03:55:27;;;;;;;9.43;3.92;;;;;;;13.59;62.15;99849.06;4458328;32;34295;-86
2023/10/01 04:03:13;;;;;;;10.15;4.25;;;;;;;14.01;60.64;99850.38;4464132;32;34425;-86
2023/10/01 04:05:46;;;;;;;10.18;4.15;;;;;;;13.97;61.13;99853.81;4466291;32;34190;-85
2023/10/01 04:08:14;;;;;;;11.65;4.07;;;;;;;14.06;60.57;99861.75;4445376;32;33885;-86
2023/10/01 04:10:42;;;;;;;9.95;4.30;;;;;;;14.00;61.04;99864.28;4450850;32;34431;-87
2023/10/01 04:13:13;;;;;;;11.05;4.45;;;;;;;13.44;62.67;99861.91;4444316;32;34391;-87
2023/10/01 04:15:46;;;;;;;13.65;5.45;;;;;;;13.20;63.63;99862.44;4451793;32;33597;-85
2023/10/01 04:23:30;;;;;;;10.57;4.05;;;;;;;13.24;63.81;99860.78;4444400;32;33415;-87
2023/10/01 04:26:06;;;;;;;8.80;3.80;;;;;;;12.96;64.63;99873.41;4438758;32;34991;-87
2023/10/01 04:28:36;;;;;;;10.13;4.07;;;;;;;13.20;63.66;99872.00;4453691;32;34536;-87
2023/10/01 04:31:14;;;;;;;8.82;4.32;;;;;;;13.55;62.51;99875.94;4445799;32;33044;-86
2023/10/01 04:33:45;;;;;;;11.07;4.00;;;;;;;13.32;63.32;99877.38;4467493;32;34682;-86
2023/10/01 04:36:16;;;;;;;9.05;3.85;;;;;;;13.31;63.35;99880.84;4435733;32;34030;-86
2023/10/01 04:38:45;;;;;;;13.48;4.30;;;;;;;13.22;63.43;99883.28;4444313;32;33862;-85
2023/10/01 04:41:13;;;;;;;12.02;4.55;;;;;;;13.39;63.04;99887.03;4452563;32;33103;-86
2023/10/01 04:44:06;;;;;;;11.65;4.28;;;;;;;13.05;64.09;99891.75;4453241;32;33901;-86
2023/10/01 04:46:37;;;;;;;12.00;4.30;;;;;;;13.43;62.62;99891.41;4440675;32;34062;-86
2023/10/01 04:49:08;;;;;;;9.20;4.00;;;;;;;12.96;64.84;99909.84;4457227;32;34163;-85
2023/10/01 04:51:48;;;;;;;12.00;4.10;;;;;;;13.08;64.52;99907.41;4467665;32;33071;-85
2023/10/01 04:54:21;;;;;;;10.70;4.75;;;;;;;12.92;64.80;99910.66;4459831;32;33458;-84
2023/10/01 04:56:49;;;;;;;8.88;4.25;;;;;;;13.15;64.09;99906.66;4467552;32;33852;-83
2023/10/01 04:59:21;;;;;;;12.43;4.37;;;;;;;13.04;64.14;99913.44;4452479;32;34446;-83
2023/10/01 05:01:48;;;;;;;12.43;4.45;;;;;;;13.16;63.98;99915.34;4467936;32;33487;-86
2023/10/01 05:04:16;;;;;;;9.73;4.18;;;;;;;13.32;63.18;99909.50;4461334;32;34163;-86
2023/10/01 05:06:59;;;;;;;12.95;4.57;;;;;;;13.42;62.96;99913.12;4457937;32;33557;-86
2023/10/01 05:09:28;;;;;;;9.25;4.12;;;;;;;13.50;62.89;99924.50;4443943;32;33119;-86
2023/10/01 05:11:55;;;;;;;10.10;4.12;;;;;;;13.52;62.43;99922.78;4443356;32;33691;-85
2023/10/01 05:14:23;;;;;;;9.68;4.60;;;;;;;13.41;63.22;99927.00;4443401;32;33551;-86
2023/10/01 05:16:54;;;;;;;14.05;4.28;;;;;;;13.45;62.77;99912.28;4453044;32;34948;-86
2023/10/01 05:19:25;;;;;;;12.73;4.22;;;;;;;13.11;64.02;99917.87;4453848;32;34802;-86
2023/10/01 05:21:56;;;;;;;12.10;4.47;;;;;;;13.25;63.60;99920.69;4428416;32;32621;-85
2023/10/01 05:24:36;;;;;;;10.48;4.50;;;;;;;13.51;63.05;99925.37;4452149;32;33566;-86
2023/10/01 05:27:18;;;;;;;12.18;5.18;;;;;;;13.61;62.15;99917.72;4458173;32;35192;-86
2023/10/01 05:29:46;;;;;;;8.88;3.92;;;;;;;13.37;63.52;99922.59;4442822;32;33493;-84
2023/10/01 05:32:13;;;;;;;12.10;4.75;;;;;;;13.25;63.67;99919.81;4454402;32;34058;-85
2023/10/01 05:34:45;;;;;;;13.60;4.30;;;;;;;13.08;64.47;99925.63;4446852;32;33903;-86
2023/10/01 05:37:24;;;;;;;11.40;4.07;;;;;;;13.42;63.28;99920.06;4438031;32;33732;-84
2023/10/01 05:39:55;;;;;;;10.27;4.57;;;;;;;13.80;62.20;99920.53;4458626;32;34352;-86
2023/10/01 05:42:28;;;;;;;9.00;3.87;;;;;;;13.82;62.12;99921.41;4439589;32;34237;-86
2023/10/01 05:44:59;;;;;;;10.30;4.32;;;;;;;13.98;61.49;99925.06;4463137;32;34710;-86
2023/10/01 05:47:41;;;;;;;11.77;4.90;;;;;;;14.14;61.27;99923.53;4457042;32;34209;-85
2023/10/01 05:50:12;;;;;;;12.77;4.18;;;;;;;14.42;60.26;99927.28;4464148;32;33871;-84
2023/10/01 05:52:41;;;;;;;10.43;4.12;;;;;;;14.27;60.75;99935.81;4465228;32;34338;-86
2023/10/01 05:55:12;;;;;;;11.65;4.62;;;;;;;14.16;61.06;99942.66;4437313;32;34735;-85
2023/10/01 05:57:40;;;;;;;10.95;4.45;;;;;;;14.08;61.64;99945.19;4454026;32;34948;-86
2023/10/01 06:00:18;;;;;;;11.65;4.65;;;;;;;14.71;59.71;99928.44;4438591;32;34310;-86
2023/10/01 06:03:00;;;;;;;11.85;4.25;;;;;;;14.19;61.27;99940.09;4442948;32;32914;-86
2023/10/01 06:05:43;;;;;;;11.73;4.57;;;;;;;13.97;61.94;99937.22;4450850;32;33997;-86
2023/10/01 06:08:15;;;;;;;11.52;4.05;;;;;;;13.70;62.81;99943.00;4450893;32;34518;-85
2023/10/01 06:11:05;;;;;;;11.30;4.43;;;;;;;13.49;63.69;99947.94;4452203;32;33599;-86
2023/10/01 06:13:48;;;;;;;11.25;4.45;;;;;;;13.66;63.52;99948.16;4451736;32;33827;-85
2023/10/01 06:16:22;;;;;;;12.10;4.47;;;;;;;13.26;64.82;99951.09;4446457;32;33816;-86
2023/10/01 06:18:57;;;;;;;10.70;4.25;;;;;;;13.55;63.60;99948.88;4444057;32;34916;-86
2023/10/01 06:21:34;;;;;;;18.12;4.70;;;;;;;13.44;64.50;99941.78;4442575;32;33811;-87
2023/10/01 06:24:10;;;;;;;12.80;4.62;;;;;;;13.65;63.93;99939.47;4452433;32;33116;-85
2023/10/01 06:26:45;;;;;;;12.70;5.05;;;;;;;13.41;64.32;99945.25;4449936;32;35188;-85
2023/10/01 06:29:16;;;;;;;11.07;4.30;;;;;;;13.44;64.33;99955.69;4459935;32;34014;-86
2023/10/01 06:34:26;;;;;;;11.98;4.25;;;;;;;13.50;64.33;99952.28;4464233;32;33335;-87
2023/10/01 06:36:57;;;;;;;10.00;4.32;;;;;;;13.96;63.07;99953.75;4461508;32;34773;-87
2023/10/01 06:39:26;;;;;;;13.45;4.50;;;;;;;13.80;63.12;99959.62;4451084;32;34157;-84
2023/10/01 06:41:54;;;;;;;13.80;4.65;;;;;;;13.62;64.20;99960.28;4442149;32;33894;-85
2023/10/01 06:44:22;;;;;;;7.93;3.42;;;;;;;13.92;63.20;99954.56;4466095;32;33504;-85
2023/10/01 06:46:51;;;;;;;11.93;4.12;;;;;;;14.25;62.40;99958.41;4454880;32;32499;-84
2023/10/01 06:49:19;;;;;;;12.55;4.25;;;;;;;14.24;62.21;99954.03;4462505;32;33863;-85
2023/10/01 06:51:47;;;;;;;11.15;4.57;;;;;;;14.16;63.08;99960.91;4461731;32;33669;-84
2023/10/01 06:54:18;;;;;;;12.40;4.68;;;;;;;14.10;63.33;99953.91;4451587;32;32949;-86
2023/10/01 06:56:47;;;;;;;11.27;4.15;;;;;;;13.92;63.83;99957.16;4453136;32;34588;-88
2023/10/01 06:59:17;;;;;;;11.23;4.15;;;;;;;14.05;63.59;99951.25;4452710;32;33855;-88
2023/10/01 07:01:50;;;;;;;12.30;4.30;;;;;;;14.06;63.40;99957.34;4457961;32;34205;-86
2023/10/01 07:04:23;;;;;;;11.02;4.57;;;;;;;13.94;64.03;99971.13;4428745;32;33198;-85
2023/10/01 07:06:53;;;;;;;12.50;5.10;;;;;;;14.09;63.16;99973.00;4466657;32;34848;-86
2023/10/01 07:09:24;;;;;;;12.32;3.95;;;;;;;13.72;64.23;99983.00;4448454;32;33704;-87
2023/10/01 07:11:56;;;;;;;9.30;3.80;;;;;;;13.79;64.33;99979.63;4442493;32;33721;-86
2023/10/01 07:14:43;;;;;;;10.80;4.12;;;;;;;13.73;64.24;99982.12;4441007;32;33299;-86
2023/10/01 07:17:15;;;;;;;12.40;3.92;;;;;;;14.00;63.79;99976.38;4448405;32;34357;-85
2023/10/01 07:19:59;;;;;;;12.10;4.00;;;;;;;14.74;60.97;99974.59;4457124;32;34262;-86
2023/10/01 07:22:31;;;;;;;13.70;4.18;;;;;;;14.74;61.33;99974.59;4441334;32;33146;-84
2023/10/01 07:25:00;;;;;;;9.88;3.30;;;;;;;14.54;61.41;99974.38;4443001;32;34004;-86
2023/10/01 07:27:28;;;;;;;12.23;4.18;;;;;;;14.29;62.51;99983.66;4451506;32;33810;-85
2023/10/01 07:29:56;;;;;;;12.98;3.78;;;;;;;14.90;60.05;99980.81;4437432;32;33843;-86
2023/10/01 07:32:24;;;;;;;11.70;3.60;;;;;;;14.83;60.69;99975.53;4459651;32;33867;-84
2023/10/01 07:34:58;;;;;;;9.48;4.15;;;;;;;14.94;59.68;99970.37;4455619;32;34643;-85
2023/10/01 07:37:29;;;;;;;9.73;3.12;;;;;;;15.26;58.46;99969.75;4465978;32;33518;-84
2023/10/01 07:40:08;;;;;;;9.80;3.67;;;;;;;14.65;60.45;99977.97;4453244;32;34194;-85
2023/10/01 07:42:46;;;;;;;12.43;3.97;;;;;;;14.72;60.20;99984.13;4438442;32;34510;-84
2023/10/01 07:45:18;;;;;;;8.05;3.03;;;;;;;15.05;59.02;99989.62;4451541;32;34258;-84
2023/10/01 07:47:48;;;;;;;9.38;3.33;;;;;;;15.18;58.89;99987.97;4448896;32;34976;-85
2023/10/01 07:50:17;;;;;;;9.88;3.47;;;;;;;15.40;58.15;99991.59;4441491;32;33889;-87
2023/10/01 07:52:44;;;;;;;11.57;3.70;;;;;;;15.31;58.36;99986.34;4456081;32;33964;-86
2023/10/01 07:55:34;;;;;;;9.57;3.65;;;;;;;15.49;57.65;99989.06;4453814;32;33442;-88
2023/10/01 08:00:59;;;;;;;10.18;3.33;;;;;;;15.93;56.83;99985.81;4449632;32;33863;-85
2023/10/01 08:06:10;;;;;;;9.60;3.35;;;;;;;16.23;55.86;99989.41;4436894;32;33548;-84
2023/10/01 08:08:47;;;;;;;13.23;3.70;;;;;;;16.71;54.49;99982.53;4451229;32;33194;-87
2023/10/01 08:14:05;;;;;;;9.52;3.45;;;;;;;16.58;53.76;99986.88;4436629;32;32700;-86
2023/10/01 08:16:47;;;;;;;9.70;3.25;;;;;;;16.90;52.42;99979.09;4436852;32;32199;-86
2023/10/01 08:19:20;;;;;;;10.43;3.47;;;;;;;17.03;51.73;99991.31;4451512;32;33615;-85
2023/10/01 08:21:53;;;;;;;11.18;3.10;;;;;;;16.99;52.40;99992.19;4437138;32;34589;-84
2023/10/01 08:24:29;;;;;;;9.45;3.25;;;;;;;17.29;52.42;99992.16;4423739;32;33295;-86
2023/10/01 08:27:12;;;;;;;12.95;3.30;;;;;;;17.30;50.95;99989.53;4450846;32;34224;-85
2023/10/01 08:32:38;;;;;;;6.85;2.45;;;;;;;17.32;51.20;99972.06;4425717;32;33465;-86
2023/10/01 08:35:06;;;;;;;8.55;3.35;;;;;;;17.01;51.68;99976.47;4450485;32;33666;-86
2023/10/01 08:37:37;;;;;;;8.48;2.87;;;;;;;17.16;51.50;99975.56;4436394;32;32338;-85
2023/10/01 08:40:13;;;;;;;9.77;2.90;;;;;;;17.29;50.75;99981.69;4436738;32;34023;-85
2023/10/01 08:42:47;;;;;;;7.75;2.80;;;;;;;17.66;49.75;99983.34;4437127;32;34085;-87
2023/10/01 08:45:17;;;;;;;9.65;2.90;;;;;;;17.50;49.18;99986.88;4445553;32;33716;-85
2023/10/01 08:47:47;;;;;;;8.23;2.80;;;;;;;17.44;49.71;99987.78;4442112;32;33375;-87
2023/10/01 08:50:18;;;;;;;10.68;3.20;;;;;;;17.15;50.77;100003.53;4433336;32;34032;-87
2023/10/01 08:52:52;;;;;;;10.02;2.87;;;;;;;17.34;51.26;100012.22;4432323;32;34802;-87
2023/10/01 08:55:22;;;;;;;12.30;3.15;;;;;;;16.96;51.02;100013.13;4434054;32;33574;-86
2023/10/01 08:57:53;;;;;;;9.38;2.90;;;;;;;17.13;51.44;100007.03;4433386;32;33272;-86
2023/10/01 09:00:24;;;;;;;11.23;3.22;;;;;;;17.51;51.43;100012.22;4433434;32;33547;-85
2023/10/01 09:03:10;;;;;;;9.40;3.25;;;;;;;17.55;50.22;100015.72;4430234;32;34222;-85
2023/10/01 09:05:46;;;;;;;9.90;2.72;;;;;;;17.23;50.36;100000.88;4441308;32;34172;-87
2023/10/01 09:08:29;;;;;;;5.60;2.53;;;;;;;17.40;49.24;100006.13;4449286;32;33107;-87
2023/10/01 09:11:10;;;;;;;9.00;2.72;;;;;;;17.47;49.33;100011.34;4435643;32;33018;-88
2023/10/01 09:14:33;;;;;;;7.30;2.72;;;;;;;17.69;48.80;100008.66;4449946;32;34959;-87
2023/10/01 09:16:42;;;;;;;8.40;3.05;;;;;;;18.10;47.54;100000.69;4443113;32;34791;-87
2023/10/01 09:19:30;;;;;;;9.55;2.95;;;;;;;18.25;47.44;99999.75;4452592;32;32919;-88
2023/10/01 09:22:09;;;;;;;6.93;2.72;;;;;;;17.76;47.91;99994.69;4451551;32;33861;-87
2023/10/01 09:24:42;;;;;;;9.25;2.97;;;;;;;18.09;47.71;99992.84;4452712;32;34471;-87
2023/10/01 09:27:21;;;;;;;9.07;2.85;;;;;;;18.10;48.08;99995.44;4452380;32;32974;-86
2023/10/01 09:29:57;;;;;;;8.20;2.90;;;;;;;18.71;45.85;99995.13;4452466;32;33259;-87
2023/10/01 09:32:50;;;;;;;7.82;2.90;;;;;;;18.50;47.17;99989.12;4451387;32;34609;-88
2023/10/01 09:35:30;;;;;;;10.13;2.80;;;;;;;18.76;46.98;99987.22;4451034;32;33477;-87
2023/10/01 09:38:12;;;;;;;7.82;2.50;;;;;;;19.36;44.31;99984.06;4452378;32;34467;-87
2023/10/01 09:40:45;;;;;;;7.47;2.75;;;;;;;19.24;45.40;99989.44;4451149;32;33033;-87
2023/10/01 09:43:30;;;;;;;10.10;3.25;;;;;;;19.37;44.46;99986.69;4438921;32;34495;-87
2023/10/01 09:46:00;;;;;;;7.20;2.35;;;;;;;19.34;43.63;99991.09;4440388;32;32834;-88
2023/10/01 09:48:34;;;;;;;10.57;2.65;;;;;;;19.08;44.86;99986.94;4451222;32;35003;-87
2023/10/01 09:51:11;;;;;;;8.73;2.80;;;;;;;19.20;45.75;99988.59;4451103;32;33131;-87
2023/10/01 09:54:00;;;;;;;8.38;2.58;;;;;;;19.19;45.27;99986.84;4452635;32;34754;-87
2023/10/01 09:56:31;;;;;;;9.00;2.50;;;;;;;19.24;45.40;99987.66;4451385;32;34848;-87
2023/10/01 09:59:03;;;;;;;13.73;3.40;;;;;;;18.74;46.24;99983.72;4451131;32;34075;-87
2023/10/01 10:01:33;;;;;;;8.80;3.25;;;;;;;18.80;46.39;99981.06;4451486;32;33342;-88
2023/10/01 10:04:06;;;;;;;7.12;2.45;;;;;;;18.76;45.96;99987.22;4452736;32;33969;-87
2023/10/01 10:06:35;;;;;;;9.75;2.80;;;;;;;19.08;46.63;99988.69;4450976;32;34120;-88
2023/10/01 10:09:04;;;;;;;9.98;2.90;;;;;;;19.51;45.73;99994.44;4438103;32;32221;-87
2023/10/01 10:11:37;;;;;;;7.30;2.55;;;;;;;19.27;46.42;99986.78;4451085;32;34229;-88
2023/10/01 10:14:26;;;;;;;10.35;2.83;;;;;;;19.79;45.79;99994.16;4451236;32;34453;-87
2023/10/01 10:20:24;;;;;;;8.30;3.08;;;;;;;19.78;44.97;99990.66;4451031;32;34118;-87
2023/10/01 10:23:21;;;;;;;11.30;3.10;;;;;;;19.33;44.70;99995.50;4450424;32;33758;-87
2023/10/01 10:25:49;;;;;;;7.78;2.15;;;;;;;19.82;43.37;100000.25;4451908;32;34081;-87
2023/10/01 10:28:29;;;;;;;9.40;2.80;;;;;;;19.85;43.96;100002.87;4452281;32;33965;-88
2023/10/01 10:31:33;;;;;;;8.63;2.22;;;;;;;19.56;43.59;100002.28;4452022;32;33986;-86
2023/10/01 10:34:26;;;;;;;8.63;2.37;;;;;;;20.15;42.73;99992.81;4452126;32;33125;-88
2023/10/01 10:36:55;;;;;;;7.28;2.42;;;;;;;20.21;43.66;99983.97;4426846;32;32289;-88
2023/10/01 10:39:44;;;;;;;8.23;2.25;;;;;;;20.27;41.95;99981.28;4438169;32;33495;-83
2023/10/01 10:42:28;;;;;;;8.90;2.53;;;;;;;20.34;40.54;99978.53;4452255;32;34535;-87
2023/10/01 10:45:42;;;;;;;8.15;2.28;;;;;;;20.29;41.55;99967.19;4450737;32;33191;-88
2023/10/01 10:48:14;;;;;;;6.93;2.78;;;;;;;20.32;40.42;99968.91;4436145;32;33997;-88
2023/10/01 10:50:48;;;;;;;8.30;2.33;;;;;;;20.77;41.36;99971.78;4450553;32;34128;-87
2023/10/01 10:53:44;;;;;;;8.43;2.57;;;;;;;20.67;40.75;99973.69;4450750;32;33623;-87
2023/10/01 10:56:14;;;;;;;10.38;2.65;;;;;;;21.25;39.37;99967.44;4452001;32;34142;-88
2023/10/01 10:59:01;;;;;;;8.50;2.40;;;;;;;21.01;41.84;99971.37;4450657;32;33572;-88
2023/10/01 11:01:44;;;;;;;7.22;2.50;;;;;;;20.90;41.04;99968.03;4452359;32;34909;-88
2023/10/01 11:04:16;;;;;;;9.93;2.67;;;;;;;20.83;41.27;99966.41;4439452;32;33875;-87
2023/10/01 11:06:44;;;;;;;6.82;2.28;;;;;;;21.12;43.82;99963.28;4450607;32;32874;-88
2023/10/01 11:09:25;;;;;;;10.90;2.72;;;;;;;21.17;40.81;99957.91;4451934;32;34574;-88
2023/10/01 11:12:01;;;;;;;8.38;2.17;;;;;;;20.87;41.97;99958.44;4450541;32;34675;-88
2023/10/01 11:14:29;;;;;;;10.00;2.62;;;;;;;21.01;41.68;99960.81;4450590;32;34260;-88
2023/10/01 11:16:57;;;;;;;7.65;2.65;;;;;;;21.40;41.23;99962.81;4451561;32;33649;-88
2023/10/01 11:19:35;;;;;;;10.05;2.30;;;;;;;20.98;41.15;99970.53;4437883;32;34639;-87
2023/10/01 11:22:08;;;;;;;9.70;2.75;;;;;;;21.05;40.46;99973.06;4450528;32;34852;-88
2023/10/01 11:24:40;;;;;;;8.98;2.20;;;;;;;21.02;41.31;99966.97;4438073;32;33028;-88
2023/10/01 11:27:25;;;;;;;9.00;2.42;;;;;;;21.18;41.71;99964.94;4450434;32;32958;-87
2023/10/01 11:30:24;;;;;;;13.98;2.40;;;;;;;20.93;40.51;99959.22;4438394;32;33731;-88
2023/10/01 11:36:07;;;;;;;8.15;2.33;;;;;;;20.96;41.79;99941.59;4450822;32;34128;-87
2023/10/01 11:38:45;;;;;;;8.63;2.45;;;;;;;21.41;39.98;99951.38;4450342;32;33397;-88
2023/10/01 11:41:13;;;;;;;8.55;2.30;;;;;;;21.21;38.42;99939.37;4450203;32;33691;-88
2023/10/01 11:43:58;;;;;;;7.53;2.20;;;;;;;21.32;39.32;99937.41;4450319;32;33706;-88
2023/10/01 11:46:35;;;;;;;6.80;2.00;;;;;;;21.26;38.35;99934.91;4439008;32;33930;-88
2023/10/01 11:49:06;;;;;;;11.30;2.42;;;;;;;21.04;39.93;99937.03;4449941;32;33455;-88
2023/10/01 11:51:45;;;;;;;8.05;2.20;;;;;;;21.48;38.97;99922.22;4451399;32;33877;-88
2023/10/01 11:54:18;;;;;;;10.52;2.53;;;;;;;21.57;39.87;99923.78;4451503;32;34704;-87
2023/10/01 11:57:04;;;;;;;7.85;2.20;;;;;;;21.95;38.29;99925.63;4451523;32;33707;-87
2023/10/01 11:59:35;;;;;;;14.05;2.45;;;;;;;21.68;39.16;99924.44;4437557;32;32236;-88
2023/10/01 12:02:18;;;;;;;6.25;2.33;;;;;;;21.47;38.70;99924.84;4449931;32;33642;-88
2023/10/01 12:04:56;;;;;;;7.62;2.37;;;;;;;20.96;39.50;99906.47;4449869;32;34211;-89
2023/10/01 12:07:31;;;;;;;9.48;2.20;;;;;;;21.52;39.01;99925.66;4450189;32;33700;-87
2023/10/01 12:10:04;;;;;;;4.65;1.83;;;;;;;21.42;40.21;99910.91;4450075;32;33511;-88
2023/10/01 12:12:37;;;;;;;6.35;2.03;;;;;;;21.74;36.99;99911.09;4450229;32;33826;-87
2023/10/01 12:17:56;;;;;;;9.25;2.35;;;;;;;21.51;38.20;99902.78;4450746;32;33862;-89
2023/10/01 12:20:28;;;;;;;8.98;2.12;;;;;;;21.71;36.87;99899.75;4438276;32;33466;-88
2023/10/01 12:23:12;;;;;;;7.78;2.10;;;;;;;21.56;37.17;99895.66;4451538;32;34636;-88
2023/10/01 12:25:51;;;;;;;6.28;1.90;;;;;;;21.21;37.50;99893.66;4440032;32;33686;-88
2023/10/01 12:28:24;;;;;;;7.22;2.20;;;;;;;21.41;37.39;99890.69;4438751;32;31979;-88
2023/10/01 12:30:58;;;;;;;5.12;1.77;;;;;;;21.67;36.97;99893.69;4438343;32;33102;-88
2023/10/01 12:33:38;;;;;;;10.90;1.80;;;;;;;21.49;35.72;99888.78;4451503;32;34711;-88
2023/10/01 12:39:16;;;;;;;7.85;2.05;;;;;;;21.49;35.31;99888.78;4450907;32;34399;-88
2023/10/01 12:42:04;;;;;;;7.75;1.95;;;;;;;21.69;35.37;99886.59;4440134;32;32429;-89
2023/10/01 12:44:33;;;;;;;7.05;1.87;;;;;;;21.74;35.67;99878.56;4439408;32;33955;-88
2023/10/01 12:47:02;;;;;;;8.18;2.05;;;;;;;21.61;35.18;99870.03;4452552;32;34578;-88